sensor_id;sensor_type;location;lat;lon;timestamp;pressure;altitude;pressure_sealevel;temperature;humidity
3780;BME280;1905;52.482;9.802;2023-02-17T00:00:52;101313.75;;;8.40;93.22
3780;BME280;1905;52.482;9.802;2023-02-17T00:03:21;101313.69;;;8.43;93.62
3780;BME280;1905;52.482;9.802;2023-02-17T00:05:49;101311.06;;;8.43;93.39
3780;BME280;1905;52.482;9.802;2023-02-17T00:08:17;101307.53;;;8.44;93.78
3780;BME280;1905;52.482;9.802;2023-02-17T00:10:54;101306.53;;;8.48;93.88
3780;BME280;1905;52.482;9.802;2023-02-17T00:13:22;101310.03;;;8.50;93.69
3780;BME280;1905;52.482;9.802;2023-02-17T00:15:49;101310.84;;;8.51;92.69
3780;BME280;1905;52.482;9.802;2023-02-17T00:18:17;101316.03;;;8.54;94.05
3780;BME280;1905;52.482;9.802;2023-02-17T00:20:45;101311.50;;;8.60;94.57
3780;BME280;1905;52.482;9.802;2023-02-17T00:23:13;101314.13;;;8.60;94.19
3780;BME280;1905;52.482;9.802;2023-02-17T00:25:40;101314.13;;;8.60;94.44
3780;BME280;1905;52.482;9.802;2023-02-17T00:28:08;101313.13;;;8.64;94.12
3780;BME280;1905;52.482;9.802;2023-02-17T00:30:36;101310.41;;;8.69;94.69
3780;BME280;1905;52.482;9.802;2023-02-17T00:33:04;101318.25;;;8.70;94.87
3780;BME280;1905;52.482;9.802;2023-02-17T00:35:32;101319.09;;;8.72;95.01
3780;BME280;1905;52.482;9.802;2023-02-17T00:38:02;101316.38;;;8.75;95.34
3780;BME280;1905;52.482;9.802;2023-02-17T00:40:30;101313.63;;;8.80;94.73
3780;BME280;1905;52.482;9.802;2023-02-17T00:42:58;101306.59;;;8.80;95.12
3780;BME280;1905;52.482;9.802;2023-02-17T00:45:25;101311.75;;;8.83;95.16
3780;BME280;1905;52.482;9.802;2023-02-17T00:47:53;101310.72;;;8.90;94.55
3780;BME280;1905;52.482;9.802;2023-02-17T00:50:20;101304.56;;;8.90;95.25
3780;BME280;1905;52.482;9.802;2023-02-17T00:52:48;101307.22;;;8.90;95.62
3780;BME280;1905;52.482;9.802;2023-02-17T00:55:17;101293.00;;;8.95;94.67
3780;BME280;1905;52.482;9.802;2023-02-17T00:57:44;101289.47;;;8.96;95.56
3780;BME280;1905;52.482;9.802;2023-02-17T01:00:13;101297.28;;;8.99;94.64
3780;BME280;1905;52.482;9.802;2023-02-17T01:02:40;101296.47;;;8.97;94.83
3780;BME280;1905;52.482;9.802;2023-02-17T01:05:08;101292.84;;;9.02;95.10
3780;BME280;1905;52.482;9.802;2023-02-17T01:07:36;101292.75;;;9.05;95.56
3780;BME280;1905;52.482;9.802;2023-02-17T01:10:05;101286.53;;;9.07;95.22
3780;BME280;1905;52.482;9.802;2023-02-17T01:12:34;101289.19;;;9.07;95.22
3780;BME280;1905;52.482;9.802;2023-02-17T01:15:02;101289.13;;;9.09;95.65
3780;BME280;1905;52.482;9.802;2023-02-17T01:17:30;101283.78;;;9.12;95.97
3780;BME280;1905;52.482;9.802;2023-02-17T01:19:57;101281.06;;;9.15;95.18
3780;BME280;1905;52.482;9.802;2023-02-17T01:22:25;101280.16;;;9.16;94.92
3780;BME280;1905;52.482;9.802;2023-02-17T01:24:56;101274.88;;;9.16;94.76
3780;BME280;1905;52.482;9.802;2023-02-17T01:27:26;101266.88;;;9.19;95.75
3780;BME280;1905;52.482;9.802;2023-02-17T01:29:55;101259.72;;;9.24;95.25
3780;BME280;1905;52.482;9.802;2023-02-17T01:32:25;101248.25;;;9.25;95.12
3780;BME280;1905;52.482;9.802;2023-02-17T01:34:53;101236.00;;;9.24;95.32
3780;BME280;1905;52.482;9.802;2023-02-17T01:37:20;101228.91;;;9.26;95.12
3780;BME280;1905;52.482;9.802;2023-02-17T01:39:48;101225.31;;;9.28;95.27
3780;BME280;1905;52.482;9.802;2023-02-17T01:42:16;101230.53;;;9.30;95.84
3780;BME280;1905;52.482;9.802;2023-02-17T01:47:55;101222.59;;;9.31;95.58
3780;BME280;1905;52.482;9.802;2023-02-17T01:50:30;101223.34;;;9.35;95.78
3780;BME280;1905;52.482;9.802;2023-02-17T01:52:59;101222.41;;;9.37;95.16
3780;BME280;1905;52.482;9.802;2023-02-17T01:55:28;101218.91;;;9.37;95.74
3780;BME280;1905;52.482;9.802;2023-02-17T01:57:57;101216.19;;;9.40;95.34
3780;BME280;1905;52.482;9.802;2023-02-17T02:00:31;101217.03;;;9.40;95.40
3780;BME280;1905;52.482;9.802;2023-02-17T02:03:01;101216.94;;;9.43;95.94
3780;BME280;1905;52.482;9.802;2023-02-17T02:05:30;101213.47;;;9.43;95.44
3780;BME280;1905;52.482;9.802;2023-02-17T02:07:58;101218.69;;;9.44;95.75
3780;BME280;1905;52.482;9.802;2023-02-17T02:10:26;101218.53;;;9.49;95.95
3780;BME280;1905;52.482;9.802;2023-02-17T02:12:54;101222.00;;;9.51;96.21
3780;BME280;1905;52.482;9.802;2023-02-17T02:15:24;101210.53;;;9.52;96.17
3780;BME280;1905;52.482;9.802;2023-02-17T02:18:07;101213.94;;;9.55;95.95
3780;BME280;1905;52.482;9.802;2023-02-17T02:21:02;101203.34;;;9.57;95.88
3780;BME280;1905;52.482;9.802;2023-02-17T02:23:49;101199.88;;;9.55;95.17
3780;BME280;1905;52.482;9.802;2023-02-17T02:26:48;101196.13;;;9.62;95.58
3780;BME280;1905;52.482;9.802;2023-02-17T02:29:43;101200.66;;;9.58;95.81
3780;BME280;1905;52.482;9.802;2023-02-17T02:32:38;101202.34;;;9.61;96.06
3780;BME280;1905;52.482;9.802;2023-02-17T02:35:12;101194.47;;;9.59;96.46
3780;BME280;1905;52.482;9.802;2023-02-17T02:37:46;101183.88;;;9.61;96.11
3780;BME280;1905;52.482;9.802;2023-02-17T02:40:17;101175.03;;;9.62;96.62
3780;BME280;1905;52.482;9.802;2023-02-17T02:42:48;101176.69;;;9.66;96.27
3780;BME280;1905;52.482;9.802;2023-02-17T02:45:17;101167.78;;;9.70;95.92
3780;BME280;1905;52.482;9.802;2023-02-17T02:47:48;101167.78;;;9.70;96.11
3780;BME280;1905;52.482;9.802;2023-02-17T02:50:27;101157.09;;;9.73;96.49
3780;BME280;1905;52.482;9.802;2023-02-17T02:53:08;101158.94;;;9.71;96.17
3780;BME280;1905;52.482;9.802;2023-02-17T02:55:47;101157.00;;;9.76;96.44
3780;BME280;1905;52.482;9.802;2023-02-17T02:58:21;101162.28;;;9.76;96.71
3780;BME280;1905;52.482;9.802;2023-02-17T03:00:56;101150.03;;;9.75;96.44
3780;BME280;1905;52.482;9.802;2023-02-17T03:03:35;101155.06;;;9.81;96.19
3780;BME280;1905;52.482;9.802;2023-02-17T03:06:15;101148.09;;;9.80;96.62
3780;BME280;1905;52.482;9.802;2023-02-17T03:08:48;101149.78;;;9.81;95.60
3780;BME280;1905;52.482;9.802;2023-02-17T03:11:22;101142.72;;;9.83;96.47
3780;BME280;1905;52.482;9.802;2023-02-17T03:14:00;101138.34;;;9.82;96.35
3780;BME280;1905;52.482;9.802;2023-02-17T03:16:28;101133.88;;;9.84;96.03
3780;BME280;1905;52.482;9.802;2023-02-17T03:18:57;101130.34;;;9.85;96.17
3780;BME280;1905;52.482;9.802;2023-02-17T03:21:31;101130.13;;;9.91;95.68
3780;BME280;1905;52.482;9.802;2023-02-17T03:24:00;101127.59;;;9.88;96.52
3780;BME280;1905;52.482;9.802;2023-02-17T03:26:28;101118.72;;;9.91;96.64
3780;BME280;1905;52.482;9.802;2023-02-17T03:28:56;101125.72;;;9.92;96.48
3780;BME280;1905;52.482;9.802;2023-02-17T03:31:24;101119.47;;;9.94;96.37
3780;BME280;1905;52.482;9.802;2023-02-17T03:33:54;101127.34;;;9.96;95.76
3780;BME280;1905;52.482;9.802;2023-02-17T03:36:24;101124.63;;;9.97;95.65
3780;BME280;1905;52.482;9.802;2023-02-17T03:38:51;101122.81;;;9.99;96.64
3780;BME280;1905;52.482;9.802;2023-02-17T03:41:19;101113.13;;;10.00;96.06
3780;BME280;1905;52.482;9.802;2023-02-17T03:43:46;101098.91;;;10.04;96.61
3780;BME280;1905;52.482;9.802;2023-02-17T03:46:15;101102.44;;;10.03;95.67
3780;BME280;1905;52.482;9.802;2023-02-17T03:48:43;101097.94;;;10.06;95.28
3780;BME280;1905;52.482;9.802;2023-02-17T03:51:13;101101.50;;;10.05;95.65
3780;BME280;1905;52.482;9.802;2023-02-17T03:53:42;101108.50;;;10.06;95.40
3780;BME280;1905;52.482;9.802;2023-02-17T03:56:10;101093.53;;;10.07;95.68
3780;BME280;1905;52.482;9.802;2023-02-17T03:58:39;101099.78;;;10.04;95.77
3780;BME280;1905;52.482;9.802;2023-02-17T04:01:08;101100.41;;;10.11;96.07
3780;BME280;1905;52.482;9.802;2023-02-17T04:03:37;101097.84;;;10.09;95.35
3780;BME280;1905;52.482;9.802;2023-02-17T04:06:05;101095.94;;;10.14;95.56
3780;BME280;1905;52.482;9.802;2023-02-17T04:08:34;101100.28;;;10.15;95.89
3780;BME280;1905;52.482;9.802;2023-02-17T04:11:04;101081.94;;;10.12;96.38
3780;BME280;1905;52.482;9.802;2023-02-17T04:13:32;101085.38;;;10.14;96.04
3780;BME280;1905;52.482;9.802;2023-02-17T04:16:00;101088.81;;;10.16;96.08
3780;BME280;1905;52.482;9.802;2023-02-17T04:18:30;101085.38;;;10.14;96.07
3780;BME280;1905;52.482;9.802;2023-02-17T04:20:58;101088.81;;;10.16;95.63
3780;BME280;1905;52.482;9.802;2023-02-17T04:23:26;101088.78;;;10.18;96.00
3780;BME280;1905;52.482;9.802;2023-02-17T04:25:53;101083.53;;;10.16;95.92
3780;BME280;1905;52.482;9.802;2023-02-17T04:28:22;101090.53;;;10.18;95.29
3780;BME280;1905;52.482;9.802;2023-02-17T04:30:50;101088.69;;;10.20;96.00
3780;BME280;1905;52.482;9.802;2023-02-17T04:33:18;101079.88;;;10.21;95.53
3780;BME280;1905;52.482;9.802;2023-02-17T04:35:46;101075.56;;;10.18;96.67
3780;BME280;1905;52.482;9.802;2023-02-17T04:38:14;101078.09;;;10.21;96.19
3780;BME280;1905;52.482;9.802;2023-02-17T04:40:42;101072.75;;;10.23;95.84
3780;BME280;1905;52.482;9.802;2023-02-17T04:43:10;101070.97;;;10.23;96.33
3780;BME280;1905;52.482;9.802;2023-02-17T04:48:39;101069.16;;;10.25;96.12
3780;BME280;1905;52.482;9.802;2023-02-17T04:51:07;101070.09;;;10.24;96.95
3780;BME280;1905;52.482;9.802;2023-02-17T04:53:34;101069.22;;;10.24;96.98
3780;BME280;1905;52.482;9.802;2023-02-17T04:56:03;101060.25;;;10.28;96.22
3780;BME280;1905;52.482;9.802;2023-02-17T04:58:31;101067.34;;;10.27;96.14
3780;BME280;1905;52.482;9.802;2023-02-17T05:00:59;101054.06;;;10.29;96.22
3780;BME280;1905;52.482;9.802;2023-02-17T05:03:27;101063.72;;;10.30;96.21
3780;BME280;1905;52.482;9.802;2023-02-17T05:05:56;101063.72;;;10.30;96.66
3780;BME280;1905;52.482;9.802;2023-02-17T05:08:24;101058.44;;;10.30;96.44
3780;BME280;1905;52.482;9.802;2023-02-17T05:10:52;101058.38;;;10.31;96.40
3780;BME280;1905;52.482;9.802;2023-02-17T05:13:19;101047.88;;;10.30;96.66
3780;BME280;1905;52.482;9.802;2023-02-17T05:15:47;101053.97;;;10.32;97.08
3780;BME280;1905;52.482;9.802;2023-02-17T05:18:15;101051.44;;;10.29;97.25
3780;BME280;1905;52.482;9.802;2023-02-17T05:20:42;101050.44;;;10.31;96.45
3780;BME280;1905;52.482;9.802;2023-02-17T05:23:11;101032.78;;;10.33;96.66
3780;BME280;1905;52.482;9.802;2023-02-17T05:25:39;101033.63;;;10.34;96.89
3780;BME280;1905;52.482;9.802;2023-02-17T05:28:07;101039.72;;;10.36;97.24
3780;BME280;1905;52.482;9.802;2023-02-17T05:30:34;101029.16;;;10.36;96.60
3780;BME280;1905;52.482;9.802;2023-02-17T05:33:02;101027.44;;;10.35;97.06
3780;BME280;1905;52.482;9.802;2023-02-17T05:35:29;101026.50;;;10.36;96.74
3780;BME280;1905;52.482;9.802;2023-02-17T05:38:00;101025.69;;;10.35;96.68
3780;BME280;1905;52.482;9.802;2023-02-17T05:40:29;101026.47;;;10.37;96.78
3780;BME280;1905;52.482;9.802;2023-02-17T05:42:56;101024.75;;;10.36;97.16
3780;BME280;1905;52.482;9.802;2023-02-17T05:45:24;101008.84;;;10.38;97.35
3780;BME280;1905;52.482;9.802;2023-02-17T05:47:52;101001.63;;;10.43;96.35
3780;BME280;1905;52.482;9.802;2023-02-17T05:50:20;101011.25;;;10.44;96.50
3780;BME280;1905;52.482;9.802;2023-02-17T05:52:48;100990.19;;;10.42;96.45
3780;BME280;1905;52.482;9.802;2023-02-17T05:55:16;100992.66;;;10.47;96.17
3780;BME280;1905;52.482;9.802;2023-02-17T05:57:45;100990.09;;;10.45;95.97
3780;BME280;1905;52.482;9.802;2023-02-17T06:00:14;100989.31;;;10.42;96.21
3780;BME280;1905;52.482;9.802;2023-02-17T06:02:45;100983.94;;;10.45;96.03
3780;BME280;1905;52.482;9.802;2023-02-17T06:05:13;100984.91;;;10.42;96.29
3780;BME280;1905;52.482;9.802;2023-02-17T06:07:42;100991.78;;;10.46;95.27
3780;BME280;1905;52.482;9.802;2023-02-17T06:10:10;100993.50;;;10.47;95.55
3780;BME280;1905;52.482;9.802;2023-02-17T06:12:38;100994.38;;;10.48;95.31
3780;BME280;1905;52.482;9.802;2023-02-17T06:15:08;101000.47;;;10.50;95.19
3780;BME280;1905;52.482;9.802;2023-02-17T06:17:36;100998.69;;;10.50;95.20
3780;BME280;1905;52.482;9.802;2023-02-17T06:20:05;101005.59;;;10.54;94.96
3780;BME280;1905;52.482;9.802;2023-02-17T06:22:33;100998.75;;;10.49;94.93
3780;BME280;1905;52.482;9.802;2023-02-17T06:25:01;100995.13;;;10.51;95.11
3780;BME280;1905;52.482;9.802;2023-02-17T06:27:29;100995.13;;;10.51;94.31
3780;BME280;1905;52.482;9.802;2023-02-17T06:29:56;100995.84;;;10.55;94.10
3780;BME280;1905;52.482;9.802;2023-02-17T06:32:25;100990.56;;;10.55;94.16
3780;BME280;1905;52.482;9.802;2023-02-17T06:34:53;100980.00;;;10.55;94.14
3780;BME280;1905;52.482;9.802;2023-02-17T06:37:21;100969.56;;;10.52;94.01
3780;BME280;1905;52.482;9.802;2023-02-17T06:39:48;100974.72;;;10.55;93.81
3780;BME280;1905;52.482;9.802;2023-02-17T06:42:16;100975.47;;;10.58;94.04
3780;BME280;1905;52.482;9.802;2023-02-17T06:44:43;100973.63;;;10.60;93.61
3780;BME280;1905;52.482;9.802;2023-02-17T06:47:11;100966.69;;;10.58;93.38
3780;BME280;1905;52.482;9.802;2023-02-17T06:49:40;100953.50;;;10.58;93.59
3780;BME280;1905;52.482;9.802;2023-02-17T06:52:07;100962.03;;;10.64;93.35
3780;BME280;1905;52.482;9.802;2023-02-17T06:54:35;100971.81;;;10.62;93.21
3780;BME280;1905;52.482;9.802;2023-02-17T06:57:02;100965.66;;;10.62;92.96
3780;BME280;1905;52.482;9.802;2023-02-17T06:59:30;100969.09;;;10.64;92.89
3780;BME280;1905;52.482;9.802;2023-02-17T07:01:58;100984.06;;;10.63;93.22
3780;BME280;1905;52.482;9.802;2023-02-17T07:04:28;100983.97;;;10.66;92.65
3780;BME280;1905;52.482;9.802;2023-02-17T07:06:56;100977.09;;;10.62;93.16
3780;BME280;1905;52.482;9.802;2023-02-17T07:09:24;100976.13;;;10.65;93.27
3780;BME280;1905;52.482;9.802;2023-02-17T07:11:51;100976.13;;;10.65;92.85
3780;BME280;1905;52.482;9.802;2023-02-17T07:14:20;100981.28;;;10.68;92.62
3780;BME280;1905;52.482;9.802;2023-02-17T07:16:53;100986.50;;;10.69;92.48
3780;BME280;1905;52.482;9.802;2023-02-17T07:19:21;100974.16;;;10.70;92.42
3780;BME280;1905;52.482;9.802;2023-02-17T07:21:48;100966.16;;;10.71;92.49
3780;BME280;1905;52.482;9.802;2023-02-17T07:24:17;100947.72;;;10.70;92.20
3780;BME280;1905;52.482;9.802;2023-02-17T07:26:45;100952.03;;;10.72;92.08
3780;BME280;1905;52.482;9.802;2023-02-17T07:29:13;100938.75;;;10.74;92.61
3780;BME280;1905;52.482;9.802;2023-02-17T07:31:40;100933.34;;;10.77;92.34
3780;BME280;1905;52.482;9.802;2023-02-17T07:34:08;100934.28;;;10.76;92.31
3780;BME280;1905;52.482;9.802;2023-02-17T07:36:36;100923.16;;;10.68;92.88
3780;BME280;1905;52.482;9.802;2023-02-17T07:39:03;100928.06;;;10.77;92.44
3780;BME280;1905;52.482;9.802;2023-02-17T07:41:33;100931.75;;;10.73;92.78
3780;BME280;1905;52.482;9.802;2023-02-17T07:44:07;100926.38;;;10.76;92.21
3780;BME280;1905;52.482;9.802;2023-02-17T07:46:36;100930.59;;;10.80;92.67
3780;BME280;1905;52.482;9.802;2023-02-17T07:49:05;100925.28;;;10.80;92.19
3780;BME280;1905;52.482;9.802;2023-02-17T07:51:33;100913.16;;;10.76;92.01
3780;BME280;1905;52.482;9.802;2023-02-17T07:54:00;100922.66;;;10.80;92.42
3780;BME280;1905;52.482;9.802;2023-02-17T07:56:29;100919.97;;;10.82;92.37
3780;BME280;1905;52.482;9.802;2023-02-17T07:59:00;100922.41;;;10.86;92.39
3780;BME280;1905;52.482;9.802;2023-02-17T08:01:27;100918.81;;;10.87;92.45
3780;BME280;1905;52.482;9.802;2023-02-17T08:03:55;100916.88;;;10.92;91.86
3780;BME280;1905;52.482;9.802;2023-02-17T08:06:24;100924.00;;;10.90;91.87
3780;BME280;1905;52.482;9.802;2023-02-17T08:08:53;100920.44;;;10.91;92.47
3780;BME280;1905;52.482;9.802;2023-02-17T08:11:38;100925.59;;;10.94;92.40
3780;BME280;1905;52.482;9.802;2023-02-17T08:14:27;100913.38;;;10.92;92.59
3780;BME280;1905;52.482;9.802;2023-02-17T08:16:55;100915.03;;;10.94;92.31
3780;BME280;1905;52.482;9.802;2023-02-17T08:19:24;100912.25;;;10.97;92.25
3780;BME280;1905;52.482;9.802;2023-02-17T08:22:04;100902.47;;;10.99;92.26
3780;BME280;1905;52.482;9.802;2023-02-17T08:24:32;100906.78;;;11.02;92.51
3780;BME280;1905;52.482;9.802;2023-02-17T08:26:59;100897.13;;;11.01;91.90
3780;BME280;1905;52.482;9.802;2023-02-17T08:29:28;100897.94;;;11.03;92.35
3780;BME280;1905;52.482;9.802;2023-02-17T08:31:56;100893.34;;;11.06;92.84
3780;BME280;1905;52.482;9.802;2023-02-17T08:34:24;100877.66;;;11.03;92.38
3780;BME280;1905;52.482;9.802;2023-02-17T08:36:51;100893.34;;;11.06;93.01
3780;BME280;1905;52.482;9.802;2023-02-17T08:39:19;100878.38;;;11.07;92.62
3780;BME280;1905;52.482;9.802;2023-02-17T08:41:47;100880.69;;;11.14;92.55
3780;BME280;1905;52.482;9.802;2023-02-17T08:44:16;100873.69;;;11.13;92.62
3780;BME280;1905;52.482;9.802;2023-02-17T08:46:46;100876.34;;;11.13;92.75
3780;BME280;1905;52.482;9.802;2023-02-17T08:49:15;100868.28;;;11.16;92.81
3780;BME280;1905;52.482;9.802;2023-02-17T08:51:44;100866.41;;;11.18;92.83
3780;BME280;1905;52.482;9.802;2023-02-17T08:54:12;100865.56;;;11.18;92.83
3780;BME280;1905;52.482;9.802;2023-02-17T08:56:41;100861.00;;;11.21;92.86
3780;BME280;1905;52.482;9.802;2023-02-17T08:59:10;100860.91;;;11.23;92.79
3780;BME280;1905;52.482;9.802;2023-02-17T09:01:39;100853.72;;;11.26;92.50
3780;BME280;1905;52.482;9.802;2023-02-17T09:04:11;100873.97;;;11.27;92.75
3780;BME280;1905;52.482;9.802;2023-02-17T09:06:42;100860.75;;;11.27;92.90
3780;BME280;1905;52.482;9.802;2023-02-17T09:09:13;100846.44;;;11.31;92.47
3780;BME280;1905;52.482;9.802;2023-02-17T09:11:41;100865.91;;;11.30;92.67
3780;BME280;1905;52.482;9.802;2023-02-17T09:14:09;100855.16;;;11.33;92.39
3780;BME280;1905;52.482;9.802;2023-02-17T09:16:37;100891.19;;;11.36;92.36
3780;BME280;1905;52.482;9.802;2023-02-17T09:19:08;100862.06;;;11.38;92.42
3780;BME280;1905;52.482;9.802;2023-02-17T09:21:36;100859.41;;;11.38;92.97
3780;BME280;1905;52.482;9.802;2023-02-17T09:24:04;100859.13;;;11.44;93.04
3780;BME280;1905;52.482;9.802;2023-02-17T09:26:32;100862.50;;;11.47;92.59
3780;BME280;1905;52.482;9.802;2023-02-17T09:29:01;100859.91;;;11.46;93.14
3780;BME280;1905;52.482;9.802;2023-02-17T09:31:29;100843.06;;;11.48;92.83
3780;BME280;1905;52.482;9.802;2023-02-17T09:33:57;100846.44;;;11.52;92.84
3780;BME280;1905;52.482;9.802;2023-02-17T09:36:27;100843.78;;;11.52;92.92
3780;BME280;1905;52.482;9.802;2023-02-17T09:38:56;100853.41;;;11.53;93.08
3780;BME280;1905;52.482;9.802;2023-02-17T09:41:26;100855.88;;;11.57;92.82
3780;BME280;1905;52.482;9.802;2023-02-17T09:43:58;100848.00;;;11.56;93.18
3780;BME280;1905;52.482;9.802;2023-02-17T09:46:29;100835.72;;;11.55;93.50
3780;BME280;1905;52.482;9.802;2023-02-17T09:49:02;100837.22;;;11.60;93.09
3780;BME280;1905;52.482;9.802;2023-02-17T09:51:36;100831.84;;;11.62;93.22
3780;BME280;1905;52.482;9.802;2023-02-17T09:54:09;100820.34;;;11.63;93.19
3780;BME280;1905;52.482;9.802;2023-02-17T09:56:40;100818.50;;;11.65;93.09
3780;BME280;1905;52.482;9.802;2023-02-17T09:59:14;100818.25;;;11.71;92.81
3780;BME280;1905;52.482;9.802;2023-02-17T10:01:45;100814.78;;;11.69;93.36
3780;BME280;1905;52.482;9.802;2023-02-17T10:04:16;100808.63;;;11.68;93.61
3780;BME280;1905;52.482;9.802;2023-02-17T10:06:50;100812.09;;;11.70;93.55
3780;BME280;1905;52.482;9.802;2023-02-17T10:09:21;100814.53;;;11.75;93.60
3780;BME280;1905;52.482;9.802;2023-02-17T10:11:55;100805.81;;;11.73;93.70
3780;BME280;1905;52.482;9.802;2023-02-17T10:14:28;100812.81;;;11.74;93.88
3780;BME280;1905;52.482;9.802;2023-02-17T10:17:03;100803.88;;;11.76;93.90
3780;BME280;1905;52.482;9.802;2023-02-17T10:19:35;100795.84;;;11.78;94.05
3780;BME280;1905;52.482;9.802;2023-02-17T10:22:11;100817.13;;;11.76;94.28
3780;BME280;1905;52.482;9.802;2023-02-17T10:24:40;100803.78;;;11.78;94.21
3780;BME280;1905;52.482;9.802;2023-02-17T10:27:19;100810.97;;;11.76;94.27
3780;BME280;1905;52.482;9.802;2023-02-17T10:30:02;100812.50;;;11.80;94.21
3780;BME280;1905;52.482;9.802;2023-02-17T10:32:38;100817.66;;;11.83;94.38
3780;BME280;1905;52.482;9.802;2023-02-17T10:46:12;100804.16;;;11.89;94.40
3780;BME280;1905;52.482;9.802;2023-02-17T10:48:48;100793.66;;;11.87;94.25
3780;BME280;1905;52.482;9.802;2023-02-17T10:51:37;100782.06;;;11.90;94.50
3780;BME280;1905;52.482;9.802;2023-02-17T10:54:10;100789.63;;;11.98;94.00
3780;BME280;1905;52.482;9.802;2023-02-17T11:00:03;100782.91;;;11.90;94.01
3780;BME280;1905;52.482;9.802;2023-02-17T11:02:35;100769.47;;;11.95;93.82
3780;BME280;1905;52.482;9.802;2023-02-17T11:05:18;100763.88;;;12.01;93.86
3780;BME280;1905;52.482;9.802;2023-02-17T11:07:47;100752.56;;;11.98;93.76
3780;BME280;1905;52.482;9.802;2023-02-17T11:10:20;100766.16;;;12.09;93.07
3780;BME280;1905;52.482;9.802;2023-02-17T11:12:49;100773.16;;;12.10;92.89
3780;BME280;1905;52.482;9.802;2023-02-17T11:15:19;100755.47;;;12.10;93.07
3780;BME280;1905;52.482;9.802;2023-02-17T11:17:49;100751.81;;;12.13;92.78
3780;BME280;1905;52.482;9.802;2023-02-17T11:20:37;100746.22;;;12.19;92.85
3780;BME280;1905;52.482;9.802;2023-02-17T11:23:17;100743.69;;;12.17;92.68
3780;BME280;1905;52.482;9.802;2023-02-17T11:25:55;100734.56;;;12.23;92.67
3780;BME280;1905;52.482;9.802;2023-02-17T11:28:24;100743.50;;;12.20;92.39
3780;BME280;1905;52.482;9.802;2023-02-17T11:30:54;100743.06;;;12.29;91.93
3780;BME280;1905;52.482;9.802;2023-02-17T11:33:29;100733.31;;;12.30;91.79
3780;BME280;1905;52.482;9.802;2023-02-17T11:35:57;100740.16;;;12.34;91.85
3780;BME280;1905;52.482;9.802;2023-02-17T11:38:27;100729.22;;;12.41;91.30
3780;BME280;1905;52.482;9.802;2023-02-17T11:40:59;100720.31;;;12.42;90.90
3780;BME280;1905;52.482;9.802;2023-02-17T11:43:28;100719.53;;;12.40;91.13
3780;BME280;1905;52.482;9.802;2023-02-17T11:46:04;100707.63;;;12.49;90.50
3780;BME280;1905;52.482;9.802;2023-02-17T11:49:04;100707.16;;;12.58;90.40
3780;BME280;1905;52.482;9.802;2023-02-17T11:51:47;100713.44;;;12.55;91.10
3780;BME280;1905;52.482;9.802;2023-02-17T11:54:22;100696.31;;;12.63;90.17
3780;BME280;1905;52.482;9.802;2023-02-17T11:56:58;100706.16;;;12.61;89.53
3780;BME280;1905;52.482;9.802;2023-02-17T11:59:41;100706.66;;;12.67;89.90
3780;BME280;1905;52.482;9.802;2023-02-17T12:02:17;100705.81;;;12.67;89.57
3780;BME280;1905;52.482;9.802;2023-02-17T12:04:53;100713.28;;;12.76;90.22
3780;BME280;1905;52.482;9.802;2023-02-17T12:07:51;100719.28;;;12.79;89.23
3780;BME280;1905;52.482;9.802;2023-02-17T12:10:36;100718.13;;;12.85;90.21
3780;BME280;1905;52.482;9.802;2023-02-17T12:13:17;100700.59;;;12.82;89.73
3780;BME280;1905;52.482;9.802;2023-02-17T12:16:03;100716.13;;;12.88;89.93
3780;BME280;1905;52.482;9.802;2023-02-17T12:18:45;100730.50;;;12.84;89.64
3780;BME280;1905;52.482;9.802;2023-02-17T12:21:29;100732.03;;;12.88;89.16
3780;BME280;1905;52.482;9.802;2023-02-17T12:24:09;100753.25;;;12.88;88.88
3780;BME280;1905;52.482;9.802;2023-02-17T12:26:45;100748.91;;;12.87;89.42
3780;BME280;1905;52.482;9.802;2023-02-17T12:29:24;100734.69;;;12.88;88.46
3780;BME280;1905;52.482;9.802;2023-02-17T12:32:08;100747.72;;;12.93;88.68
3780;BME280;1905;52.482;9.802;2023-02-17T12:34:42;100748.97;;;12.86;87.93
3780;BME280;1905;52.482;9.802;2023-02-17T12:37:17;100764.81;;;12.87;88.75
3780;BME280;1905;52.482;9.802;2023-02-17T12:39:52;100747.34;;;12.83;88.24
3780;BME280;1905;52.482;9.802;2023-02-17T12:42:26;100761.28;;;12.87;88.75
3780;BME280;1905;52.482;9.802;2023-02-17T12:45:06;100754.28;;;12.86;87.87
3780;BME280;1905;52.482;9.802;2023-02-17T12:47:45;100737.28;;;12.90;89.17
3780;BME280;1905;52.482;9.802;2023-02-17T12:50:34;100736.66;;;12.85;88.49
3780;BME280;1905;52.482;9.802;2023-02-17T12:53:19;100731.28;;;12.86;88.82
3780;BME280;1905;52.482;9.802;2023-02-17T12:55:52;100741.81;;;12.88;88.68
3780;BME280;1905;52.482;9.802;2023-02-17T12:58:25;100720.78;;;12.85;88.88
3780;BME280;1905;52.482;9.802;2023-02-17T13:00:57;100734.94;;;12.84;89.24
3780;BME280;1905;52.482;9.802;2023-02-17T13:03:28;100732.91;;;12.89;88.83
3780;BME280;1905;52.482;9.802;2023-02-17T13:05:58;100725.06;;;12.87;88.96
3780;BME280;1905;52.482;9.802;2023-02-17T13:08:33;100742.66;;;12.88;89.18
3780;BME280;1905;52.482;9.802;2023-02-17T13:11:04;100754.28;;;12.86;89.13
3780;BME280;1905;52.482;9.802;2023-02-17T13:13:34;100745.69;;;12.81;88.80
3780;BME280;1905;52.482;9.802;2023-02-17T13:16:08;100756.31;;;12.81;89.37
3780;BME280;1905;52.482;9.802;2023-02-17T13:18:38;100758.03;;;12.82;89.38
3780;BME280;1905;52.482;9.802;2023-02-17T13:21:17;100775.88;;;12.78;89.77
3780;BME280;1905;52.482;9.802;2023-02-17T13:24:00;100773.16;;;12.80;90.57
3780;BME280;1905;52.482;9.802;2023-02-17T13:26:30;100777.81;;;12.75;90.88
3780;BME280;1905;52.482;9.802;2023-02-17T13:29:32;100776.13;;;12.74;91.56
3780;BME280;1905;52.482;9.802;2023-02-17T13:32:09;100772.91;;;12.67;91.85
3780;BME280;1905;52.482;9.802;2023-02-17T13:35:04;100794.97;;;12.68;92.28
3780;BME280;1905;52.482;9.802;2023-02-17T13:37:38;100817.03;;;12.68;92.12
3780;BME280;1905;52.482;9.802;2023-02-17T13:40:37;100796.59;;;12.70;92.35
3780;BME280;1905;52.482;9.802;2023-02-17T13:43:09;100795.13;;;12.65;92.66
3780;BME280;1905;52.482;9.802;2023-02-17T13:45:41;100806.81;;;12.61;92.73
3780;BME280;1905;52.482;9.802;2023-02-17T13:48:14;100810.97;;;12.66;92.29
3780;BME280;1905;52.482;9.802;2023-02-17T13:50:50;100813.81;;;12.62;93.09
3780;BME280;1905;52.482;9.802;2023-02-17T13:53:24;100811.31;;;12.59;93.21
3780;BME280;1905;52.482;9.802;2023-02-17T13:55:56;100808.00;;;12.55;93.83
3780;BME280;1905;52.482;9.802;2023-02-17T13:58:26;100803.84;;;12.49;94.14